McPherson, Kansas
Current Conditions -  °F | °C
As of 3:13 AM on Thursday 23 Oct 2014 (Local Time) from KHUT Reporting Station
Overcast Overcast  
Wind Chill: 62°   Ceiling: 2800
Heat Index: 62°   Visibility: 10mi
Dew Point: 57°   Wind: 8mph
Humidity: 84%   Direction: 200°SSW
Pressure: 30.08"   Gusts: NA
Location:  38.37°N, 97.67°W
Report Text: KHUT 230813Z AUTO 20007KT 10SM BKN028 OVC032 17/14 A3008 RMK AO2 T01670139
Loading
Personal Weather Stations






























Interactive Weather Map New forecast layout! Learn more

10-Day Weather Forecast

Advertisements
Track Severe Weather on mobile